Time;durP1;ratioP1;P1;durP2;ratioP2;P2;SDS_P1;SDS_P2;PMS_P1;PMS_P2;Temp;Humidity;BMP_temperature;BMP_pressure;BME280_temperature;BME280_humidity;BME280_pressure;Samples;Min_cycle;Max_cycle;Signal;HPM_P1;HPM_P2
2021/03/09 00:01:21;;;;;;;;;;;7.50;74.70;;;;;;5109952;28;19908;-57
2021/03/09 00:03:46;;;;;;;;;;;7.50;74.70;;;;;;5109888;28;19912;-58
2021/03/09 00:06:12;;;;;;;;;;;7.50;74.70;;;;;;5110084;28;19981;-55
2021/03/09 00:08:37;;;;;;;;;;;7.40;74.70;;;;;;5109512;28;19920;-57
2021/03/09 00:11:03;;;;;;;;;;;7.40;74.90;;;;;;5105403;28;19907;-59
2021/03/09 00:13:28;;;;;;;;;;;7.40;74.80;;;;;;5112454;27;19915;-58
2021/03/09 00:15:54;;;;;;;;;;;7.40;74.80;;;;;;5111885;28;20264;-59
2021/03/09 00:18:19;;;;;;;;;;;7.40;74.90;;;;;;5115606;27;19943;-57
2021/03/09 00:20:45;;;;;;;;;;;7.30;74.80;;;;;;5097444;28;19912;-59
2021/03/09 00:23:10;;;;;;;;;;;7.30;74.80;;;;;;5116073;27;20397;-59
2021/03/09 00:25:35;;;;;;;;;;;7.30;74.80;;;;;;5112812;28;19912;-61
2021/03/09 00:28:01;;;;;;;;;;;7.30;74.90;;;;;;5114270;27;19908;-57
2021/03/09 00:30:26;;;;;;;;;;;7.30;75.00;;;;;;5094109;28;20201;-59
2021/03/09 00:32:52;;;;;;;;;;;7.30;74.90;;;;;;5116156;27;19934;-57
2021/03/09 00:35:17;;;;;;;;;;;7.20;74.80;;;;;;5095295;28;20432;-59
2021/03/09 00:37:43;;;;;;;;;;;7.30;75.00;;;;;;5110411;27;19920;-59
2021/03/09 00:40:08;;;;;;;;;;;7.20;74.90;;;;;;5111672;28;19908;-58
2021/03/09 00:42:34;;;;;;;;;;;7.20;74.90;;;;;;5117180;27;19961;-57
2021/03/09 00:44:59;;;;;;;;;;;7.20;74.90;;;;;;5110914;28;19957;-58
2021/03/09 00:47:25;;;;;;;;;;;7.20;75.00;;;;;;5114079;28;20374;-58
2021/03/09 00:49:50;;;;;;;;;;;7.20;75.10;;;;;;5118310;27;19912;-57
2021/03/09 00:52:15;;;;;;;;;;;7.20;75.00;;;;;;5116982;27;19911;-60
2021/03/09 00:54:41;;;;;;;;;;;7.20;75.00;;;;;;5087263;28;19931;-60
2021/03/09 00:57:07;;;;;;;;;;;7.10;75.00;;;;;;5117646;27;20779;-57
2021/03/09 00:59:32;;;;;;;;;;;7.10;75.10;;;;;;5113996;28;19916;-59
2021/03/09 01:01:58;;;;;;;;;;;7.10;75.20;;;;;;5121852;27;19914;-57
2021/03/09 01:04:23;;;;;;;;;;;7.10;75.20;;;;;;5118370;27;19907;-59
2021/03/09 01:06:49;;;;;;;;;;;7.10;75.20;;;;;;5115901;27;19912;-59
2021/03/09 01:09:14;;;;;;;;;;;7.10;75.20;;;;;;5119633;27;20286;-58
2021/03/09 01:11:40;;;;;;;;;;;7.00;75.20;;;;;;5117504;27;19956;-59
2021/03/09 01:14:05;;;;;;;;;;;7.00;75.20;;;;;;5114449;27;19907;-59
2021/03/09 01:16:30;;;;;;;;;;;7.00;75.30;;;;;;5101210;28;19911;-61
2021/03/09 01:18:56;;;;;;;;;;;7.00;75.40;;;;;;5099604;28;19912;-59
2021/03/09 01:21:21;;;;;;;;;;;7.00;75.40;;;;;;5115732;27;19912;-58
2021/03/09 01:23:47;;;;;;;;;;;7.00;75.30;;;;;;5112554;27;20408;-60
2021/03/09 01:26:12;;;;;;;;;;;7.00;75.30;;;;;;5109803;27;19934;-59
2021/03/09 01:28:38;;;;;;;;;;;7.00;75.30;;;;;;5099839;28;19912;-58
2021/03/09 01:31:03;;;;;;;;;;;6.90;75.30;;;;;;5118785;27;19907;-58
2021/03/09 01:33:29;;;;;;;;;;;6.90;75.40;;;;;;5097461;28;19915;-61
2021/03/09 01:35:54;;;;;;;;;;;6.90;75.50;;;;;;5120201;27;19995;-57
2021/03/09 01:38:19;;;;;;;;;;;6.90;75.50;;;;;;5120359;27;19919;-59
2021/03/09 01:40:45;;;;;;;;;;;6.90;75.50;;;;;;5115867;27;19919;-59
2021/03/09 01:43:10;;;;;;;;;;;6.80;75.50;;;;;;5116756;27;20002;-59
2021/03/09 01:45:36;;;;;;;;;;;6.80;75.60;;;;;;5121469;27;19970;-59
2021/03/09 01:48:02;;;;;;;;;;;6.70;75.50;;;;;;5115543;27;19922;-61
2021/03/09 01:50:28;;;;;;;;;;;6.80;75.60;;;;;;5117882;27;19930;-59
2021/03/09 01:52:53;;;;;;;;;;;6.80;75.80;;;;;;5099105;27;19998;-62
2021/03/09 01:55:19;;;;;;;;;;;6.80;75.80;;;;;;5113940;27;19907;-59
2021/03/09 01:57:44;;;;;;;;;;;6.70;75.80;;;;;;5097544;28;19908;-58
2021/03/09 02:00:10;;;;;;;;;;;6.70;75.90;;;;;;5118201;27;20239;-57
2021/03/09 02:02:36;;;;;;;;;;;6.70;75.90;;;;;;5110537;27;19912;-58
2021/03/09 02:05:03;;;;;;;;;;;6.70;75.90;;;;;;5094476;27;19908;-60
2021/03/09 02:07:28;;;;;;;;;;;6.60;75.90;;;;;;5111845;28;19995;-60
2021/03/09 02:09:54;;;;;;;;;;;6.60;75.90;;;;;;5111918;27;19920;-60
2021/03/09 02:12:33;;;;;;;;;;;6.60;75.90;;;;;;5092945;28;20355;-59
2021/03/09 02:15:01;;;;;;;;;;;6.60;76.00;;;;;;5093715;28;20314;-59
2021/03/09 02:17:46;;;;;;;;;;;6.60;76.00;;;;;;5111896;28;19953;-61
2021/03/09 02:20:44;;;;;;;;;;;6.60;76.10;;;;;;5086048;28;20279;-60
2021/03/09 02:23:26;;;;;;;;;;;6.50;76.00;;;;;;5055415;28;20407;-57
2021/03/09 02:26:11;;;;;;;;;;;6.50;76.70;;;;;;5110931;27;20260;-60
2021/03/09 02:28:38;;;;;;;;;;;6.50;76.10;;;;;;5095009;28;20262;-58
2021/03/09 02:31:05;;;;;;;;;;;6.50;76.20;;;;;;5093060;28;19916;-59
2021/03/09 02:33:36;;;;;;;;;;;6.40;76.10;;;;;;5112359;27;20270;-60
2021/03/09 02:36:02;;;;;;;;;;;6.40;76.20;;;;;;5085370;28;19911;-58
2021/03/09 02:38:30;;;;;;;;;;;6.40;76.20;;;;;;5110785;27;20298;-60
2021/03/09 02:40:57;;;;;;;;;;;6.40;76.20;;;;;;5088527;28;19916;-59
2021/03/09 02:43:22;;;;;;;;;;;6.40;76.20;;;;;;5114881;27;20092;-59
2021/03/09 02:45:48;;;;;;;;;;;6.40;76.30;;;;;;5092505;28;19911;-60
2021/03/09 02:48:13;;;;;;;;;;;6.40;76.30;;;;;;5114683;28;19914;-58
2021/03/09 02:50:39;;;;;;;;;;;6.40;76.30;;;;;;5112572;27;19930;-59
2021/03/09 02:53:06;;;;;;;;;;;6.30;76.20;;;;;;5108748;28;19915;-57
2021/03/09 02:55:31;;;;;;;;;;;6.30;76.20;;;;;;5091950;28;19908;-59
2021/03/09 02:57:57;;;;;;;;;;;6.30;76.20;;;;;;5096276;28;19916;-57
2021/03/09 03:00:23;;;;;;;;;;;6.30;76.30;;;;;;5092118;28;19918;-61
2021/03/09 03:02:48;;;;;;;;;;;6.30;76.30;;;;;;5078555;28;20359;-60
2021/03/09 03:05:13;;;;;;;;;;;6.20;76.10;;;;;;5112194;27;19911;-60
2021/03/09 03:07:39;;;;;;;;;;;6.20;76.10;;;;;;5109637;28;19907;-58
2021/03/09 03:10:06;;;;;;;;;;;6.20;76.20;;;;;;5091885;28;19911;-58
2021/03/09 03:12:31;;;;;;;;;;;6.20;76.30;;;;;;5095881;28;19915;-60
2021/03/09 03:14:57;;;;;;;;;;;6.20;76.30;;;;;;5079451;28;20286;-58
2021/03/09 03:17:22;;;;;;;;;;;6.20;76.30;;;;;;5094708;28;19918;-57
2021/03/09 03:19:48;;;;;;;;;;;6.20;76.30;;;;;;5095191;28;19912;-57
2021/03/09 03:22:15;;;;;;;;;;;6.10;76.30;;;;;;5095542;28;19916;-59
2021/03/09 03:24:40;;;;;;;;;;;6.10;76.40;;;;;;5092468;28;19907;-59
2021/03/09 03:27:06;;;;;;;;;;;6.10;76.20;;;;;;5117940;28;20390;-58
2021/03/09 03:29:31;;;;;;;;;;;6.10;76.30;;;;;;5095823;28;20006;-58
2021/03/09 03:31:56;;;;;;;;;;;6.10;76.30;;;;;;5091165;28;19908;-58
2021/03/09 03:34:22;;;;;;;;;;;6.00;76.30;;;;;;5122079;28;20386;-59
2021/03/09 03:36:47;;;;;;;;;;;6.00;76.40;;;;;;5114447;28;20052;-60
2021/03/09 03:39:13;;;;;;;;;;;6.00;76.30;;;;;;5118609;28;19914;-59
2021/03/09 03:41:38;;;;;;;;;;;6.00;76.40;;;;;;5117799;28;20383;-59
2021/03/09 03:44:04;;;;;;;;;;;6.00;76.40;;;;;;5094570;28;19918;-61
2021/03/09 03:46:29;;;;;;;;;;;6.00;76.50;;;;;;5123568;27;20413;-60
2021/03/09 03:48:55;;;;;;;;;;;6.00;76.50;;;;;;5106989;28;19938;-59
2021/03/09 03:51:22;;;;;;;;;;;6.00;76.40;;;;;;5099086;28;20024;-61
2021/03/09 03:54:10;;;;;;;;;;;5.90;76.40;;;;;;5093680;28;20259;-60
2021/03/09 03:56:47;;;;;;;;;;;5.90;76.40;;;;;;5094809;27;19933;-60
2021/03/09 03:59:21;;;;;;;;;;;5.90;76.50;;;;;;5095979;28;20266;-57
2021/03/09 04:01:46;;;;;;;;;;;5.90;76.40;;;;;;5117525;27;20420;-58
2021/03/09 04:04:12;;;;;;;;;;;5.80;76.40;;;;;;5098969;28;19912;-60
2021/03/09 04:06:42;;;;;;;;;;;5.80;76.40;;;;;;5116371;27;20307;-58
2021/03/09 04:09:08;;;;;;;;;;;5.80;76.50;;;;;;5094012;28;19939;-59
2021/03/09 04:11:33;;;;;;;;;;;5.80;76.50;;;;;;5093911;28;20351;-58
2021/03/09 04:13:59;;;;;;;;;;;5.80;76.60;;;;;;5088988;28;19911;-59
2021/03/09 04:16:24;;;;;;;;;;;5.80;76.70;;;;;;5099634;27;19961;-60
2021/03/09 04:18:50;;;;;;;;;;;5.80;76.70;;;;;;5098069;28;19914;-58
2021/03/09 04:21:15;;;;;;;;;;;5.80;76.80;;;;;;5101118;28;20267;-60
2021/03/09 04:23:41;;;;;;;;;;;5.70;76.70;;;;;;5118437;27;19907;-58
2021/03/09 04:26:06;;;;;;;;;;;5.80;76.80;;;;;;5116862;27;19915;-57
2021/03/09 04:28:32;;;;;;;;;;;5.70;76.70;;;;;;5116283;27;19908;-58
2021/03/09 04:30:58;;;;;;;;;;;5.70;76.80;;;;;;5101928;27;20433;-60
2021/03/09 04:33:25;;;;;;;;;;;5.70;76.80;;;;;;5116302;27;19950;-57
2021/03/09 04:35:51;;;;;;;;;;;5.70;76.80;;;;;;5097165;27;19911;-61
2021/03/09 04:38:16;;;;;;;;;;;5.70;76.80;;;;;;5097591;28;20397;-60
2021/03/09 04:40:42;;;;;;;;;;;5.60;76.80;;;;;;5099053;28;19916;-60
2021/03/09 04:43:07;;;;;;;;;;;5.60;76.80;;;;;;5090792;28;19960;-58
2021/03/09 04:45:33;;;;;;;;;;;5.60;76.90;;;;;;5123583;27;19915;-60
2021/03/09 04:48:01;;;;;;;;;;;5.60;76.90;;;;;;5098067;28;19968;-60
2021/03/09 04:50:27;;;;;;;;;;;5.60;76.90;;;;;;5093886;28;20011;-57
2021/03/09 04:52:52;;;;;;;;;;;5.60;76.90;;;;;;5102438;27;20006;-59
2021/03/09 04:55:21;;;;;;;;;;;5.60;76.90;;;;;;5106840;27;19915;-59
2021/03/09 04:57:46;;;;;;;;;;;5.60;76.90;;;;;;5097595;28;19912;-57
2021/03/09 05:00:13;;;;;;;;;;;5.60;76.90;;;;;;5120107;27;19914;-60
2021/03/09 05:02:38;;;;;;;;;;;5.50;76.90;;;;;;5108401;28;20381;-59
2021/03/09 05:05:04;;;;;;;;;;;5.50;76.90;;;;;;5102884;28;19911;-57
2021/03/09 05:07:29;;;;;;;;;;;5.50;77.00;;;;;;5121748;27;19907;-59
2021/03/09 05:09:55;;;;;;;;;;;5.50;77.00;;;;;;5098037;27;19927;-59
2021/03/09 05:12:20;;;;;;;;;;;5.50;77.00;;;;;;5116819;27;19911;-60
2021/03/09 05:14:46;;;;;;;;;;;5.50;77.10;;;;;;5119600;27;19912;-58
2021/03/09 05:17:11;;;;;;;;;;;5.50;77.00;;;;;;5119930;27;19907;-58
2021/03/09 05:19:37;;;;;;;;;;;5.50;77.10;;;;;;5115929;27;20458;-58
2021/03/09 05:22:02;;;;;;;;;;;5.40;77.00;;;;;;5117796;27;19960;-58
2021/03/09 05:24:28;;;;;;;;;;;5.40;77.00;;;;;;5110564;27;19912;-60
2021/03/09 05:26:53;;;;;;;;;;;5.40;77.00;;;;;;5112680;27;20423;-57
2021/03/09 05:29:19;;;;;;;;;;;5.40;77.10;;;;;;5091866;28;19935;-61
2021/03/09 05:31:44;;;;;;;;;;;5.40;77.10;;;;;;5112539;28;19908;-58
2021/03/09 05:34:10;;;;;;;;;;;5.40;77.10;;;;;;5114488;27;19961;-59
2021/03/09 05:36:35;;;;;;;;;;;5.40;77.20;;;;;;5113762;27;20359;-59
2021/03/09 05:39:00;;;;;;;;;;;5.40;77.20;;;;;;5094299;27;20002;-60
2021/03/09 05:41:26;;;;;;;;;;;5.40;77.20;;;;;;5110926;28;19912;-57
2021/03/09 05:43:52;;;;;;;;;;;5.40;77.20;;;;;;5112971;27;19912;-57
2021/03/09 05:46:17;;;;;;;;;;;5.30;77.20;;;;;;5112465;28;19931;-59
2021/03/09 05:48:42;;;;;;;;;;;5.30;77.20;;;;;;5095325;28;19918;-58
2021/03/09 05:51:08;;;;;;;;;;;5.30;77.20;;;;;;5112871;28;19912;-58
2021/03/09 05:53:33;;;;;;;;;;;5.30;77.30;;;;;;5090826;28;20407;-57
2021/03/09 05:55:59;;;;;;;;;;;5.30;77.30;;;;;;5092434;28;19914;-59
2021/03/09 05:58:25;;;;;;;;;;;5.30;77.30;;;;;;5093646;28;19912;-59
2021/03/09 06:00:50;;;;;;;;;;;5.20;77.20;;;;;;5094116;28;19920;-57
2021/03/09 06:03:16;;;;;;;;;;;5.20;77.30;;;;;;5093309;28;19930;-58
2021/03/09 06:05:41;;;;;;;;;;;5.20;77.30;;;;;;5110520;28;19914;-60
2021/03/09 06:08:07;;;;;;;;;;;5.20;77.30;;;;;;5091987;28;19912;-58
2021/03/09 06:10:32;;;;;;;;;;;5.20;77.30;;;;;;5092727;28;19924;-58
2021/03/09 06:12:58;;;;;;;;;;;5.20;77.30;;;;;;5124607;27;20157;-58
2021/03/09 06:15:23;;;;;;;;;;;5.20;77.40;;;;;;5123735;27;19938;-58
2021/03/09 06:17:52;;;;;;;;;;;5.20;77.50;;;;;;5092731;28;19943;-57
2021/03/09 06:20:18;;;;;;;;;;;5.20;77.50;;;;;;5109510;28;19911;-59
2021/03/09 06:22:44;;;;;;;;;;;5.20;77.50;;;;;;5110817;28;19914;-58
2021/03/09 06:25:10;;;;;;;;;;;5.10;77.40;;;;;;5093126;28;19911;-57
2021/03/09 06:27:35;;;;;;;;;;;5.10;77.40;;;;;;5111789;28;19914;-57
2021/03/09 06:30:01;;;;;;;;;;;5.20;77.50;;;;;;5110037;28;19998;-57
2021/03/09 06:32:26;;;;;;;;;;;5.10;77.40;;;;;;5107553;28;20027;-59
2021/03/09 06:34:53;;;;;;;;;;;5.10;77.40;;;;;;5102982;27;20403;-57
2021/03/09 06:37:18;;;;;;;;;;;5.10;77.30;;;;;;5092608;28;19924;-59
2021/03/09 06:39:48;;;;;;;;;;;5.10;77.30;;;;;;5122181;27;19960;-57
2021/03/09 06:42:17;;;;;;;;;;;5.10;77.40;;;;;;5112365;27;20274;-56
2021/03/09 06:44:47;;;;;;;;;;;5.10;77.40;;;;;;5090790;28;19923;-60
2021/03/09 06:47:12;;;;;;;;;;;5.20;78.10;;;;;;5114720;27;19912;-57
2021/03/09 06:49:53;;;;;;;;;;;5.10;77.40;;;;;;5114736;27;20370;-58
2021/03/09 06:52:19;;;;;;;;;;;5.10;77.30;;;;;;5109665;27;19907;-56
2021/03/09 06:54:45;;;;;;;;;;;5.10;77.30;;;;;;5111128;27;20363;-60
2021/03/09 06:57:11;;;;;;;;;;;5.10;77.30;;;;;;5084033;28;19998;-58
2021/03/09 06:59:36;;;;;;;;;;;5.20;77.40;;;;;;5109210;28;19995;-59
2021/03/09 07:02:09;;;;;;;;;;;5.20;77.30;;;;;;5091026;28;20378;-61
2021/03/09 07:04:41;;;;;;;;;;;5.20;77.30;;;;;;5111198;27;20010;-60
2021/03/09 07:07:07;;;;;;;;;;;5.20;77.30;;;;;;5112417;27;19908;-59
2021/03/09 07:09:33;;;;;;;;;;;5.20;77.30;;;;;;5114556;28;19920;-60
2021/03/09 07:11:58;;;;;;;;;;;5.20;77.30;;;;;;5087152;28;20343;-59
2021/03/09 07:14:24;;;;;;;;;;;5.20;77.30;;;;;;5112271;28;19915;-60
2021/03/09 07:16:50;;;;;;;;;;;5.20;77.30;;;;;;5077867;28;19912;-60
2021/03/09 07:19:25;;;;;;;;;;;5.20;77.30;;;;;;5111647;28;19923;-58
2021/03/09 07:21:51;;;;;;;;;;;5.20;77.20;;;;;;5093949;28;20143;-58
2021/03/09 07:24:18;;;;;;;;;;;5.20;77.20;;;;;;5117543;27;20045;-58
2021/03/09 07:26:44;;;;;;;;;;;5.20;77.20;;;;;;5108804;28;19908;-60
2021/03/09 07:29:09;;;;;;;;;;;5.20;77.20;;;;;;5097826;28;19942;-60
2021/03/09 07:31:34;;;;;;;;;;;5.20;77.30;;;;;;5090270;28;20780;-59
2021/03/09 07:34:00;;;;;;;;;;;5.20;77.30;;;;;;5088397;28;19912;-60
2021/03/09 07:36:25;;;;;;;;;;;5.20;77.30;;;;;;5087764;28;20371;-57
2021/03/09 07:38:51;;;;;;;;;;;5.20;77.20;;;;;;5106006;28;20389;-57
2021/03/09 07:41:17;;;;;;;;;;;5.20;77.20;;;;;;5092257;28;19920;-58
2021/03/09 07:43:42;;;;;;;;;;;5.20;77.20;;;;;;5092396;28;19912;-59
2021/03/09 07:46:11;;;;;;;;;;;5.20;77.10;;;;;;5089252;28;19917;-58
2021/03/09 07:48:36;;;;;;;;;;;5.20;77.00;;;;;;5091170;28;19915;-59
2021/03/09 07:51:02;;;;;;;;;;;5.30;77.10;;;;;;5092267;28;19919;-58
2021/03/09 07:53:27;;;;;;;;;;;5.30;77.10;;;;;;5104633;28;20008;-59
2021/03/09 07:56:08;;;;;;;;;;;5.30;77.10;;;;;;5097164;28;19926;-59
2021/03/09 07:58:34;;;;;;;;;;;5.30;77.10;;;;;;5096874;27;20424;-57
2021/03/09 08:01:00;;;;;;;;;;;5.30;77.10;;;;;;5087113;28;19912;-58
2021/03/09 08:03:33;;;;;;;;;;;5.30;77.00;;;;;;5103141;28;19916;-57
2021/03/09 08:06:02;;;;;;;;;;;5.40;77.10;;;;;;5083684;28;20554;-60
2021/03/09 08:08:40;;;;;;;;;;;5.40;77.00;;;;;;5102052;28;20353;-58
2021/03/09 08:11:29;;;;;;;;;;;5.30;77.00;;;;;;5102277;28;20006;-57
2021/03/09 08:14:03;;;;;;;;;;;5.40;76.90;;;;;;5088826;28;19926;-57
2021/03/09 08:16:32;;;;;;;;;;;5.40;77.00;;;;;;5102819;28;19957;-60
2021/03/09 08:18:58;;;;;;;;;;;5.40;77.00;;;;;;5088070;27;20511;-59
2021/03/09 08:21:39;;;;;;;;;;;5.40;77.00;;;;;;5102863;27;19912;-59
2021/03/09 08:24:05;;;;;;;;;;;5.40;76.90;;;;;;5102729;28;19927;-58
2021/03/09 08:26:30;;;;;;;;;;;5.40;76.80;;;;;;5110501;28;19915;-60
2021/03/09 08:28:56;;;;;;;;;;;5.40;76.80;;;;;;5091216;28;19916;-61
2021/03/09 08:31:21;;;;;;;;;;;5.40;76.80;;;;;;5088569;28;19961;-60
2021/03/09 08:33:47;;;;;;;;;;;5.40;76.90;;;;;;5109221;28;19916;-59
2021/03/09 08:36:26;;;;;;;;;;;5.40;76.90;;;;;;5091961;28;19921;-60
2021/03/09 08:41:27;;;;;;;;;;;5.50;76.90;;;;;;5107047;28;19919;-59
2021/03/09 08:44:12;;;;;;;;;;;5.50;77.00;;;;;;5090726;28;21367;-58
2021/03/09 08:46:56;;;;;;;;;;;5.50;77.00;;;;;;5107494;28;20191;-57
2021/03/09 08:49:49;;;;;;;;;;;5.50;77.00;;;;;;5087833;28;19930;-59
2021/03/09 08:52:14;;;;;;;;;;;5.50;77.00;;;;;;5100634;28;19919;-57
2021/03/09 08:54:52;;;;;;;;;;;5.50;77.00;;;;;;5077960;28;20625;-58
2021/03/09 08:57:17;;;;;;;;;;;5.50;76.80;;;;;;5097820;27;20159;-60
2021/03/09 08:59:43;;;;;;;;;;;5.60;76.90;;;;;;5100658;27;19979;-58
2021/03/09 09:02:09;;;;;;;;;;;5.60;76.70;;;;;;5107427;28;19916;-57
2021/03/09 09:04:35;;;;;;;;;;;5.60;76.80;;;;;;5109769;27;19907;-58
2021/03/09 09:07:15;;;;;;;;;;;5.60;76.90;;;;;;5108865;27;19919;-60
2021/03/09 09:09:41;;;;;;;;;;;5.60;76.90;;;;;;5102014;28;19946;-58
2021/03/09 09:12:18;;;;;;;;;;;5.70;76.90;;;;;;5096082;28;20616;-59
2021/03/09 09:14:44;;;;;;;;;;;5.70;76.60;;;;;;5103926;28;19911;-58
2021/03/09 09:17:09;;;;;;;;;;;5.70;76.60;;;;;;5085759;28;19956;-62
2021/03/09 09:19:35;;;;;;;;;;;5.70;76.70;;;;;;5101828;28;19961;-59
2021/03/09 09:22:00;;;;;;;;;;;5.80;76.70;;;;;;5086128;28;19949;-59
2021/03/09 09:24:27;;;;;;;;;;;5.80;76.90;;;;;;5107349;28;20387;-61
2021/03/09 09:26:59;;;;;;;;;;;5.80;76.70;;;;;;5086929;28;20467;-59
2021/03/09 09:29:25;;;;;;;;;;;5.80;76.80;;;;;;5100942;28;19916;-60
2021/03/09 09:31:54;;;;;;;;;;;5.80;76.80;;;;;;5087492;28;19915;-62
2021/03/09 09:34:19;;;;;;;;;;;5.90;76.80;;;;;;5102761;28;20223;-61
2021/03/09 09:36:45;;;;;;;;;;;5.80;76.80;;;;;;5083563;28;20390;-57
2021/03/09 09:39:11;;;;;;;;;;;5.90;77.40;;;;;;5084148;28;19923;-61
2021/03/09 09:41:36;;;;;;;;;;;5.90;76.90;;;;;;5104122;28;19951;-60
2021/03/09 09:44:01;;;;;;;;;;;5.90;76.80;;;;;;5106675;28;19923;-61
2021/03/09 09:46:27;;;;;;;;;;;5.90;76.80;;;;;;5104145;27;19916;-59
2021/03/09 09:48:53;;;;;;;;;;;6.00;76.80;;;;;;5087624;28;19920;-61
2021/03/09 09:51:19;;;;;;;;;;;6.00;76.60;;;;;;5101388;27;20306;-60
2021/03/09 09:53:51;;;;;;;;;;;6.00;76.60;;;;;;5082518;28;19911;-61
2021/03/09 09:56:17;;;;;;;;;;;6.00;76.60;;;;;;5089366;28;20352;-60
2021/03/09 09:58:48;;;;;;;;;;;6.00;76.50;;;;;;5100411;27;19955;-59
2021/03/09 10:01:18;;;;;;;;;;;6.10;76.40;;;;;;5106633;28;19912;-58
2021/03/09 10:03:53;;;;;;;;;;;6.10;76.30;;;;;;5082998;28;19916;-61
2021/03/09 10:06:18;;;;;;;;;;;6.10;76.20;;;;;;5102938;28;20189;-60
2021/03/09 10:08:44;;;;;;;;;;;6.10;76.10;;;;;;5108482;28;20003;-58
2021/03/09 10:11:09;;;;;;;;;;;6.20;76.00;;;;;;5107928;28;19916;-60
2021/03/09 10:13:35;;;;;;;;;;;6.20;75.90;;;;;;5089322;27;19922;-60
2021/03/09 10:16:00;;;;;;;;;;;6.20;75.80;;;;;;5107167;27;19916;-58
2021/03/09 10:18:27;;;;;;;;;;;6.30;75.80;;;;;;5098347;28;19916;-59
2021/03/09 10:21:06;;;;;;;;;;;6.30;75.70;;;;;;5107327;27;20003;-56
2021/03/09 10:23:49;;;;;;;;;;;6.40;75.60;;;;;;5110298;27;19931;-59
2021/03/09 10:26:15;;;;;;;;;;;6.40;75.60;;;;;;5104957;28;19916;-57
2021/03/09 10:28:40;;;;;;;;;;;6.40;75.50;;;;;;5086835;28;19915;-58
2021/03/09 10:31:11;;;;;;;;;;;6.40;75.40;;;;;;5105269;28;20363;-57
2021/03/09 10:33:37;;;;;;;;;;;6.40;75.40;;;;;;5107305;28;20416;-58
2021/03/09 10:36:06;;;;;;;;;;;6.40;75.30;;;;;;5106983;28;19916;-59
2021/03/09 10:38:31;;;;;;;;;;;6.50;75.40;;;;;;5109698;27;19953;-59
2021/03/09 10:40:57;;;;;;;;;;;6.60;75.30;;;;;;5108108;28;19960;-58
2021/03/09 10:43:41;;;;;;;;;;;6.60;75.40;;;;;;5085222;28;19920;-61
2021/03/09 10:46:07;;;;;;;;;;;6.60;75.30;;;;;;5102440;28;20271;-57
2021/03/09 10:48:32;;;;;;;;;;;6.70;75.20;;;;;;5084278;28;19916;-55
2021/03/09 10:50:58;;;;;;;;;;;6.70;75.20;;;;;;5107948;28;20087;-56
2021/03/09 10:53:23;;;;;;;;;;;6.70;75.10;;;;;;5081718;28;19915;-55
2021/03/09 10:55:49;;;;;;;;;;;6.80;75.10;;;;;;5084774;28;20336;-56
2021/03/09 10:58:14;;;;;;;;;;;6.80;75.10;;;;;;5103600;28;19918;-57
2021/03/09 11:00:40;;;;;;;;;;;6.90;75.10;;;;;;5109427;27;19911;-55
2021/03/09 11:03:05;;;;;;;;;;;6.90;74.90;;;;;;5089989;28;19920;-59
2021/03/09 11:05:31;;;;;;;;;;;6.90;75.00;;;;;;5087959;28;19954;-59
2021/03/09 11:07:56;;;;;;;;;;;7.00;75.00;;;;;;5102951;28;20119;-56
2021/03/09 11:10:21;;;;;;;;;;;7.00;74.90;;;;;;5090590;28;19923;-56
2021/03/09 11:12:47;;;;;;;;;;;7.00;74.80;;;;;;5098390;28;19919;-59
2021/03/09 11:15:13;;;;;;;;;;;7.00;74.80;;;;;;5101627;28;20700;-58
2021/03/09 11:17:38;;;;;;;;;;;7.00;74.70;;;;;;5104458;28;19927;-57
2021/03/09 11:20:04;;;;;;;;;;;7.10;74.60;;;;;;5104528;28;19965;-59
2021/03/09 11:22:30;;;;;;;;;;;7.20;74.60;;;;;;5108539;28;19919;-59
2021/03/09 11:24:55;;;;;;;;;;;7.20;74.60;;;;;;5105083;28;19916;-57
2021/03/09 11:27:20;;;;;;;;;;;7.20;74.60;;;;;;5089998;28;19965;-55
2021/03/09 11:29:46;;;;;;;;;;;7.20;74.50;;;;;;5104703;28;20413;-56
2021/03/09 11:32:11;;;;;;;;;;;7.30;74.60;;;;;;5105063;28;19912;-58
2021/03/09 11:34:37;;;;;;;;;;;7.30;74.50;;;;;;5106031;28;20186;-56
2021/03/09 11:37:02;;;;;;;;;;;7.30;74.50;;;;;;5087713;28;19919;-58
2021/03/09 11:39:28;;;;;;;;;;;7.40;74.50;;;;;;5087305;28;20372;-56
2021/03/09 11:41:53;;;;;;;;;;;7.40;74.40;;;;;;5107482;28;19911;-59
2021/03/09 11:44:19;;;;;;;;;;;7.40;74.40;;;;;;5107881;28;20011;-57
2021/03/09 11:46:44;;;;;;;;;;;7.40;74.30;;;;;;5105793;28;19919;-58
2021/03/09 11:49:10;;;;;;;;;;;7.50;74.20;;;;;;5105138;28;20077;-59
2021/03/09 11:51:35;;;;;;;;;;;7.50;74.20;;;;;;5089948;28;19923;-61
2021/03/09 11:54:01;;;;;;;;;;;7.60;74.20;;;;;;5108039;28;19908;-61
2021/03/09 11:56:26;;;;;;;;;;;7.60;74.10;;;;;;5110262;28;20288;-61
2021/03/09 11:58:52;;;;;;;;;;;7.60;74.00;;;;;;5091616;28;19916;-57
2021/03/09 12:01:18;;;;;;;;;;;7.70;74.00;;;;;;5109585;28;20018;-60
2021/03/09 12:03:43;;;;;;;;;;;7.70;74.00;;;;;;5111134;28;19959;-60
2021/03/09 12:06:09;;;;;;;;;;;7.80;74.00;;;;;;5104349;28;19951;-57
2021/03/09 12:08:34;;;;;;;;;;;7.80;73.80;;;;;;5099334;28;20470;-58
2021/03/09 12:11:00;;;;;;;;;;;7.90;73.80;;;;;;5114974;27;19924;-57
2021/03/09 12:13:25;;;;;;;;;;;7.90;73.70;;;;;;5104012;27;20651;-56
2021/03/09 12:15:50;;;;;;;;;;;8.00;73.70;;;;;;5107548;27;19916;-56
2021/03/09 12:18:16;;;;;;;;;;;8.00;73.70;;;;;;5093856;28;19996;-58
2021/03/09 12:20:42;;;;;;;;;;;8.10;73.70;;;;;;5095595;28;19915;-58
2021/03/09 12:23:07;;;;;;;;;;;8.10;73.70;;;;;;5104022;27;19963;-56
2021/03/09 12:25:33;;;;;;;;;;;8.10;73.50;;;;;;5109755;27;19950;-57
2021/03/09 12:27:58;;;;;;;;;;;8.20;73.40;;;;;;5106604;27;20075;-60
2021/03/09 12:30:24;;;;;;;;;;;8.20;73.30;;;;;;5101179;27;19930;-59
2021/03/09 12:32:50;;;;;;;;;;;8.20;73.20;;;;;;5113168;27;19916;-59
2021/03/09 12:35:15;;;;;;;;;;;8.30;73.20;;;;;;5112106;27;19912;-59
2021/03/09 12:37:41;;;;;;;;;;;8.40;73.30;;;;;;5105544;27;19926;-56
2021/03/09 12:40:06;;;;;;;;;;;8.40;73.20;;;;;;5107961;28;19934;-58
2021/03/09 12:42:32;;;;;;;;;;;8.40;73.30;;;;;;5115890;27;19962;-58
2021/03/09 12:44:57;;;;;;;;;;;8.50;73.30;;;;;;5117628;27;19915;-59
2021/03/09 12:47:23;;;;;;;;;;;8.50;73.20;;;;;;5109082;28;20416;-57
2021/03/09 12:49:48;;;;;;;;;;;8.60;73.00;;;;;;5091106;28;19916;-57
2021/03/09 12:52:13;;;;;;;;;;;8.60;72.70;;;;;;5083083;28;19972;-57
2021/03/09 12:54:39;;;;;;;;;;;8.60;72.50;;;;;;5103730;28;19912;-58
2021/03/09 12:57:05;;;;;;;;;;;8.70;72.40;;;;;;5117934;27;19908;-56
2021/03/09 12:59:30;;;;;;;;;;;8.70;72.50;;;;;;5109206;28;19962;-58
2021/03/09 13:01:56;;;;;;;;;;;8.80;72.40;;;;;;5102499;28;20299;-57
2021/03/09 13:04:21;;;;;;;;;;;8.80;72.20;;;;;;5102973;28;19919;-57
2021/03/09 13:06:46;;;;;;;;;;;8.90;72.30;;;;;;5085452;28;19919;-57
2021/03/09 13:09:12;;;;;;;;;;;8.90;72.00;;;;;;5109291;28;20424;-57
2021/03/09 13:11:37;;;;;;;;;;;8.90;71.80;;;;;;5109166;27;20194;-57
2021/03/09 13:14:03;;;;;;;;;;;9.00;71.70;;;;;;5111799;27;20018;-56
2021/03/09 13:16:28;;;;;;;;;;;9.00;71.60;;;;;;5105005;28;19912;-59
2021/03/09 13:18:54;;;;;;;;;;;9.00;71.60;;;;;;5114755;27;20334;-56
2021/03/09 13:21:20;;;;;;;;;;;9.10;71.60;;;;;;5111232;28;19912;-59
2021/03/09 13:23:45;;;;;;;;;;;9.10;71.40;;;;;;5090856;27;19918;-59
2021/03/09 13:26:11;;;;;;;;;;;9.20;71.50;;;;;;5112243;28;19912;-59
2021/03/09 13:28:37;;;;;;;;;;;9.20;71.60;;;;;;5110776;27;20063;-60
2021/03/09 13:31:02;;;;;;;;;;;9.20;71.60;;;;;;5107172;28;20412;-59
2021/03/09 13:33:28;;;;;;;;;;;9.30;71.50;;;;;;5112415;27;19927;-58
2021/03/09 13:35:53;;;;;;;;;;;9.30;71.00;;;;;;5108014;28;19915;-58
2021/03/09 13:38:19;;;;;;;;;;;9.30;71.00;;;;;;5108959;27;19978;-59
2021/03/09 13:40:44;;;;;;;;;;;9.40;71.00;;;;;;5090327;28;19911;-59
2021/03/09 13:43:10;;;;;;;;;;;9.40;70.90;;;;;;5111552;27;19920;-57
2021/03/09 13:45:35;;;;;;;;;;;9.40;70.90;;;;;;5108383;27;19926;-57
2021/03/09 13:48:01;;;;;;;;;;;9.50;71.00;;;;;;5106594;28;20268;-58
2021/03/09 13:50:26;;;;;;;;;;;9.50;70.70;;;;;;5110340;27;20608;-57
2021/03/09 13:52:52;;;;;;;;;;;9.60;70.80;;;;;;5111231;28;19914;-59
2021/03/09 13:55:17;;;;;;;;;;;9.50;70.70;;;;;;5105833;28;19916;-59
2021/03/09 13:57:43;;;;;;;;;;;9.60;70.50;;;;;;5100526;27;19951;-57
2021/03/09 14:00:09;;;;;;;;;;;9.60;70.50;;;;;;5107553;28;19920;-59
2021/03/09 14:02:34;;;;;;;;;;;9.60;70.30;;;;;;5090775;28;19961;-58
2021/03/09 14:05:00;;;;;;;;;;;9.70;70.20;;;;;;5110335;28;19912;-59
2021/03/09 14:07:25;;;;;;;;;;;9.70;70.40;;;;;;5091030;28;20363;-58
2021/03/09 14:09:51;;;;;;;;;;;9.70;70.30;;;;;;5108503;28;19918;-58
2021/03/09 14:12:16;;;;;;;;;;;9.70;69.90;;;;;;5091061;28;19907;-58
2021/03/09 14:14:42;;;;;;;;;;;9.70;68.90;;;;;;5091331;28;20073;-57
2021/03/09 14:17:07;;;;;;;;;;;9.80;68.10;;;;;;5092432;28;19912;-59
2021/03/09 14:19:32;;;;;;;;;;;9.80;67.70;;;;;;5110137;28;19912;-56
2021/03/09 14:21:58;;;;;;;;;;;9.80;67.70;;;;;;5090541;28;20135;-57
2021/03/09 14:24:23;;;;;;;;;;;9.90;67.90;;;;;;5108216;28;19969;-59
2021/03/09 14:26:49;;;;;;;;;;;9.90;67.50;;;;;;5090624;28;19990;-59
2021/03/09 14:29:15;;;;;;;;;;;9.70;67.60;;;;;;5108795;27;19920;-58
2021/03/09 14:31:40;;;;;;;;;;;9.90;68.20;;;;;;5106625;28;19961;-59